Smyrna, Delaware
Current Conditions -  °F | °C
As of 7:58 AM on Saturday 25 Oct 2014 (Local Time) from KDOV Reporting Station
Clear Clear  
Wind Chill: 43°   Ceiling: Unl
Heat Index: 45°   Visibility: 10mi
Dew Point: 40°   Wind: 5mph
Humidity: 84%   Direction: 280°W
Pressure: 29.91"   Gusts: NA
Location:  39.3°N, 75.61°W
Report Text: KDOV 251158Z AUTO 28004KT 10SM CLR 07/05 A2991 RMK AO2 SLP132 T00720047 10116 20069 50005
Loading
Personal Weather Stations






























Interactive Weather Map
Tropical Storm Tracking
New forecast layout! Learn more

10-Day Weather Forecast

Advertisements
Track Severe Weather on mobile